Time;durP1;ratioP1;P1;durP2;ratioP2;P2;SDS_P1;SDS_P2;PMS_P1;PMS_P2;Temp;Humidity;BMP_temperature;BMP_pressure;BME280_temperature;BME280_humidity;BME280_pressure;Samples;Min_cycle;Max_cycle;Signal;HPM_P1;HPM_P2
2022/03/07 00:01:24;;;;;;;;;11.50;11.00;;;;;;;;5041141;28;51190;-53
2022/03/07 00:04:09;;;;;;;;;9.50;9.00;;;;;;;;5037885;28;51503;-52
2022/03/07 00:06:53;;;;;;;;;12.75;10.25;;;;;;;;5042636;28;51124;-53
2022/03/07 00:09:38;;;;;;;;;8.00;7.50;;;;;;;;5044721;28;51111;-50
2022/03/07 00:12:22;;;;;;;;;9.00;8.50;;;;;;;;5047003;28;51258;-52
2022/03/07 00:15:07;;;;;;;;;9.50;9.00;;;;;;;;5041947;28;51166;-52
2022/03/07 00:17:51;;;;;;;;;8.00;6.50;;;;;;;;5042722;28;51439;-53
2022/03/07 00:20:35;;;;;;;;;13.00;9.75;;;;;;;;5047250;28;51169;-53
2022/03/07 00:23:20;;;;;;;;;9.00;7.00;;;;;;;;5044739;28;51008;-53
2022/03/07 00:26:05;;;;;;;;;12.00;9.00;;;;;;;;5046591;28;51202;-50
2022/03/07 00:28:49;;;;;;;;;10.00;8.50;;;;;;;;5041913;28;51128;-52
2022/03/07 00:31:34;;;;;;;;;8.25;7.25;;;;;;;;5045147;28;51082;-53
2022/03/07 00:34:18;;;;;;;;;7.25;7.25;;;;;;;;5049243;28;51150;-52
2022/03/07 00:37:03;;;;;;;;;9.50;8.00;;;;;;;;5057726;28;51004;-52
2022/03/07 00:39:47;;;;;;;;;8.25;5.75;;;;;;;;5042164;28;51102;-52
2022/03/07 00:42:31;;;;;;;;;10.25;8.25;;;;;;;;5052313;28;51209;-53
2022/03/07 00:45:16;;;;;;;;;10.50;6.25;;;;;;;;5042856;28;51203;-53
2022/03/07 00:48:00;;;;;;;;;10.25;9.75;;;;;;;;5042560;28;51535;-51
2022/03/07 00:50:45;;;;;;;;;14.00;10.75;;;;;;;;5042089;28;51053;-53
2022/03/07 00:53:29;;;;;;;;;8.75;8.75;;;;;;;;5047877;28;51296;-50
2022/03/07 00:56:14;;;;;;;;;9.00;7.25;;;;;;;;5041325;28;51159;-50
2022/03/07 00:58:58;;;;;;;;;11.25;8.00;;;;;;;;5041883;28;51112;-52
2022/03/07 01:01:42;;;;;;;;;11.00;8.75;;;;;;;;5042099;28;51173;-52
2022/03/07 01:04:27;;;;;;;;;11.00;8.00;;;;;;;;5043165;28;51020;-53
2022/03/07 01:07:11;;;;;;;;;12.00;8.75;;;;;;;;5041644;28;51123;-52
2022/03/07 01:09:56;;;;;;;;;12.75;12.50;;;;;;;;5035027;28;51057;-51
2022/03/07 01:12:41;;;;;;;;;11.50;10.00;;;;;;;;5043689;28;51063;-52
2022/03/07 01:15:25;;;;;;;;;12.50;9.50;;;;;;;;5038309;28;51190;-53
2022/03/07 01:18:09;;;;;;;;;13.00;9.50;;;;;;;;5041141;28;51135;-53
2022/03/07 01:20:54;;;;;;;;;11.25;10.00;;;;;;;;5041038;28;51078;-53
2022/03/07 01:23:38;;;;;;;;;12.50;6.75;;;;;;;;5043525;28;51189;-52
2022/03/07 01:26:23;;;;;;;;;9.00;8.00;;;;;;;;5041868;28;51550;-53
2022/03/07 01:29:08;;;;;;;;;13.00;9.00;;;;;;;;5045046;28;51136;-52
2022/03/07 01:31:52;;;;;;;;;11.00;9.00;;;;;;;;5040243;28;51010;-51
2022/03/07 01:34:36;;;;;;;;;12.25;9.25;;;;;;;;5042925;28;51046;-52
2022/03/07 01:37:21;;;;;;;;;13.25;8.75;;;;;;;;5045240;28;51166;-53
2022/03/07 01:40:05;;;;;;;;;2.75;2.75;;;;;;;;5058781;28;51037;-51
2022/03/07 01:42:49;;;;;;;;;8.75;7.50;;;;;;;;5051907;28;51403;-53
2022/03/07 01:45:34;;;;;;;;;10.75;9.00;;;;;;;;5040304;28;51084;-51
2022/03/07 01:48:18;;;;;;;;;11.25;9.00;;;;;;;;5040526;28;51095;-53
2022/03/07 01:51:03;;;;;;;;;11.00;9.75;;;;;;;;5039980;28;51471;-53
2022/03/07 01:53:47;;;;;;;;;6.00;6.00;;;;;;;;5044619;28;51133;-54
2022/03/07 01:56:32;;;;;;;;;11.00;8.00;;;;;;;;5039220;28;51145;-54
2022/03/07 01:59:21;;;;;;;;;9.75;7.75;;;;;;;;5043548;28;51089;-53
2022/03/07 02:02:05;;;;;;;;;12.75;7.50;;;;;;;;5039424;28;51489;-53
2022/03/07 02:04:49;;;;;;;;;9.50;7.50;;;;;;;;5044392;28;51135;-53
2022/03/07 02:07:34;;;;;;;;;12.25;10.00;;;;;;;;5054040;28;51330;-53
2022/03/07 02:10:18;;;;;;;;;11.50;8.75;;;;;;;;5036683;28;51072;-54
2022/03/07 02:13:09;;;;;;;;;6.75;6.75;;;;;;;;5044811;28;51120;-53
2022/03/07 02:15:57;;;;;;;;;14.00;8.00;;;;;;;;5044179;28;51360;-53
2022/03/07 02:18:42;;;;;;;;;7.75;7.50;;;;;;;;5039957;28;51138;-53
2022/03/07 02:21:26;;;;;;;;;6.75;6.75;;;;;;;;5040064;28;51394;-54
2022/03/07 02:24:11;;;;;;;;;5.75;3.25;;;;;;;;5040108;28;51076;-52
2022/03/07 02:26:56;;;;;;;;;8.00;6.75;;;;;;;;5038352;28;51331;-53
2022/03/07 02:29:40;;;;;;;;;7.25;7.25;;;;;;;;5046807;28;51218;-54
2022/03/07 02:32:25;;;;;;;;;9.25;7.75;;;;;;;;5045068;28;52286;-54
2022/03/07 02:35:14;;;;;;;;;6.25;5.25;;;;;;;;5039721;28;51158;-53
2022/03/07 02:37:58;;;;;;;;;8.75;7.25;;;;;;;;5042130;28;51166;-52
2022/03/07 02:40:43;;;;;;;;;10.25;7.25;;;;;;;;5039158;28;51189;-54
2022/03/07 02:43:28;;;;;;;;;11.00;6.00;;;;;;;;5046588;28;51512;-53
2022/03/07 02:46:12;;;;;;;;;12.50;7.75;;;;;;;;5046454;28;51113;-53
2022/03/07 02:48:56;;;;;;;;;9.00;7.75;;;;;;;;5038461;28;51174;-51
2022/03/07 02:51:46;;;;;;;;;6.00;6.00;;;;;;;;5042864;28;51586;-51
2022/03/07 02:54:30;;;;;;;;;13.00;9.25;;;;;;;;5038528;28;51058;-53
2022/03/07 02:57:14;;;;;;;;;7.75;7.75;;;;;;;;5045338;28;51167;-50
2022/03/07 02:59:59;;;;;;;;;7.25;6.50;;;;;;;;5038991;28;51163;-53
2022/03/07 03:02:43;;;;;;;;;8.00;7.00;;;;;;;;5044653;28;50994;-53
2022/03/07 03:05:27;;;;;;;;;9.25;7.25;;;;;;;;5039423;28;51095;-51
2022/03/07 03:08:12;;;;;;;;;8.25;6.50;;;;;;;;5038385;28;51071;-53
2022/03/07 03:10:57;;;;;;;;;8.75;6.25;;;;;;;;5039093;28;51095;-54
2022/03/07 03:13:41;;;;;;;;;9.75;9.75;;;;;;;;5039694;28;51113;-54
2022/03/07 03:16:26;;;;;;;;;13.25;6.00;;;;;;;;5039182;28;51036;-53
2022/03/07 03:19:10;;;;;;;;;7.00;6.25;;;;;;;;5046417;28;51570;-52
2022/03/07 03:21:54;;;;;;;;;10.75;7.75;;;;;;;;5040467;28;51097;-52
2022/03/07 03:24:39;;;;;;;;;13.50;7.00;;;;;;;;5044986;28;51162;-52
2022/03/07 03:27:23;;;;;;;;;10.75;8.75;;;;;;;;5039487;28;51167;-54
2022/03/07 03:30:08;;;;;;;;;8.00;6.50;;;;;;;;5035256;28;51186;-51
2022/03/07 03:32:53;;;;;;;;;9.75;7.00;;;;;;;;5044271;28;51069;-52
2022/03/07 03:35:37;;;;;;;;;7.00;4.50;;;;;;;;5040638;28;51005;-53
2022/03/07 03:38:21;;;;;;;;;9.50;7.00;;;;;;;;5037027;28;51080;-53
2022/03/07 03:41:06;;;;;;;;;10.75;9.00;;;;;;;;5043520;28;51385;-54
2022/03/07 03:43:50;;;;;;;;;7.50;7.00;;;;;;;;5041750;28;51166;-53
2022/03/07 03:46:35;;;;;;;;;10.00;8.50;;;;;;;;5038890;28;51026;-51
2022/03/07 03:49:19;;;;;;;;;8.25;7.75;;;;;;;;5038639;28;51064;-50
2022/03/07 03:52:05;;;;;;;;;8.75;8.50;;;;;;;;5043592;28;51179;-52
2022/03/07 03:54:49;;;;;;;;;6.75;6.75;;;;;;;;5054765;28;51542;-52
2022/03/07 03:57:33;;;;;;;;;10.75;7.75;;;;;;;;5045794;28;51159;-50
2022/03/07 04:00:18;;;;;;;;;7.50;7.50;;;;;;;;5043676;28;51142;-52
2022/03/07 04:03:02;;;;;;;;;10.25;7.75;;;;;;;;5043101;28;50982;-53
2022/03/07 04:05:47;;;;;;;;;11.00;8.25;;;;;;;;5041231;28;51117;-54
2022/03/07 04:08:32;;;;;;;;;9.50;6.75;;;;;;;;5057761;28;51144;-53
2022/03/07 04:11:16;;;;;;;;;11.75;7.00;;;;;;;;5037083;28;51125;-52
2022/03/07 04:14:02;;;;;;;;;12.50;10.75;;;;;;;;5043418;28;51106;-51
2022/03/07 04:16:46;;;;;;;;;10.00;7.25;;;;;;;;5047193;28;51154;-52
2022/03/07 04:19:34;;;;;;;;;10.75;7.75;;;;;;;;5041215;28;51447;-52
2022/03/07 04:22:18;;;;;;;;;11.25;9.50;;;;;;;;5041689;28;51432;-53
2022/03/07 04:25:03;;;;;;;;;8.75;7.75;;;;;;;;5040815;28;51323;-53
2022/03/07 04:27:47;;;;;;;;;13.00;9.75;;;;;;;;5043520;28;51142;-53
2022/03/07 04:30:32;;;;;;;;;11.00;9.25;;;;;;;;5042845;28;51534;-53
2022/03/07 04:33:17;;;;;;;;;13.50;9.00;;;;;;;;5041119;28;51126;-51
2022/03/07 04:36:05;;;;;;;;;9.50;3.00;;;;;;;;5041256;28;51358;-52
2022/03/07 04:38:49;;;;;;;;;9.50;7.75;;;;;;;;5042176;28;51144;-52
2022/03/07 04:41:34;;;;;;;;;10.25;9.00;;;;;;;;5046808;28;51107;-53
2022/03/07 04:44:18;;;;;;;;;8.50;8.50;;;;;;;;5046404;28;51033;-52
2022/03/07 04:47:02;;;;;;;;;12.00;9.75;;;;;;;;5061256;28;51453;-53
2022/03/07 04:49:47;;;;;;;;;11.50;10.25;;;;;;;;5040098;28;51156;-52
2022/03/07 04:52:32;;;;;;;;;9.25;9.00;;;;;;;;5044995;28;51057;-53
2022/03/07 04:55:17;;;;;;;;;15.00;10.50;;;;;;;;5051742;28;51094;-52
2022/03/07 04:58:01;;;;;;;;;14.50;10.75;;;;;;;;5058392;28;51094;-51
2022/03/07 05:00:45;;;;;;;;;11.00;8.75;;;;;;;;5042264;28;51447;-53
2022/03/07 05:03:30;;;;;;;;;15.75;11.00;;;;;;;;5043247;28;51166;-52
2022/03/07 05:06:14;;;;;;;;;9.00;8.75;;;;;;;;5041640;28;51075;-53
2022/03/07 05:08:59;;;;;;;;;13.00;8.50;;;;;;;;5041121;28;51411;-53
2022/03/07 05:11:43;;;;;;;;;12.50;8.00;;;;;;;;5041549;28;51061;-50
2022/03/07 05:14:27;;;;;;;;;9.00;9.00;;;;;;;;5041499;28;51060;-53
2022/03/07 05:17:12;;;;;;;;;8.75;8.25;;;;;;;;5043467;28;51174;-51
2022/03/07 05:19:56;;;;;;;;;9.75;8.00;;;;;;;;5043323;28;51058;-53
2022/03/07 05:22:41;;;;;;;;;11.50;9.00;;;;;;;;5046931;28;51480;-53
2022/03/07 05:25:26;;;;;;;;;11.00;8.00;;;;;;;;5042993;28;51475;-52
2022/03/07 05:28:10;;;;;;;;;12.50;8.25;;;;;;;;5041536;28;51109;-51
2022/03/07 05:30:54;;;;;;;;;13.50;7.75;;;;;;;;5042188;28;51142;-53
2022/03/07 05:33:38;;;;;;;;;9.00;7.00;;;;;;;;5046844;28;51535;-52
2022/03/07 05:36:23;;;;;;;;;10.25;9.00;;;;;;;;5040769;28;51146;-54
2022/03/07 05:39:07;;;;;;;;;8.50;6.00;;;;;;;;5045733;28;51633;-53
2022/03/07 05:41:52;;;;;;;;;9.00;9.00;;;;;;;;5041734;28;51095;-53
2022/03/07 05:44:36;;;;;;;;;11.25;7.00;;;;;;;;5036494;28;51510;-51
2022/03/07 05:47:20;;;;;;;;;9.00;7.00;;;;;;;;5054561;28;51094;-51
2022/03/07 05:50:05;;;;;;;;;10.50;6.50;;;;;;;;5032981;28;51293;-54
2022/03/07 05:52:50;;;;;;;;;16.25;12.50;;;;;;;;5041509;28;51095;-54
2022/03/07 05:55:34;;;;;;;;;7.75;7.50;;;;;;;;5043776;28;51106;-52
2022/03/07 05:58:18;;;;;;;;;11.25;11.25;;;;;;;;5042066;28;51077;-53
2022/03/07 06:01:03;;;;;;;;;14.50;11.00;;;;;;;;5040080;28;51524;-51
2022/03/07 06:03:47;;;;;;;;;10.75;10.75;;;;;;;;5040126;28;51218;-51
2022/03/07 06:06:32;;;;;;;;;12.00;10.25;;;;;;;;5040349;28;51138;-54
2022/03/07 06:09:16;;;;;;;;;8.75;8.00;;;;;;;;5031865;28;51193;-52
2022/03/07 06:12:01;;;;;;;;;12.25;10.25;;;;;;;;5039621;28;51178;-50
2022/03/07 06:14:45;;;;;;;;;16.25;12.00;;;;;;;;5038717;28;51247;-52
2022/03/07 06:17:34;;;;;;;;;10.50;8.75;;;;;;;;5038116;28;51185;-52
2022/03/07 06:20:22;;;;;;;;;16.00;9.75;;;;;;;;5036982;28;51085;-51
2022/03/07 06:23:06;;;;;;;;;15.25;11.00;;;;;;;;5039565;28;51040;-50
2022/03/07 06:25:50;;;;;;;;;14.00;9.00;;;;;;;;5038647;28;51478;-52
2022/03/07 06:28:35;;;;;;;;;11.75;9.50;;;;;;;;5039289;28;51164;-50
2022/03/07 06:31:19;;;;;;;;;13.00;13.00;;;;;;;;5039464;28;50970;-50
2022/03/07 06:34:04;;;;;;;;;14.50;11.00;;;;;;;;5038789;28;51427;-51
2022/03/07 06:36:50;;;;;;;;;16.00;11.75;;;;;;;;5035706;28;51185;-51
2022/03/07 06:39:35;;;;;;;;;8.00;7.25;;;;;;;;5039015;28;51468;-51
2022/03/07 06:42:20;;;;;;;;;25.00;21.50;;;;;;;;5037972;28;51019;-52
2022/03/07 06:45:04;;;;;;;;;12.00;10.00;;;;;;;;5039345;28;51000;-50
2022/03/07 06:47:49;;;;;;;;;17.00;12.25;;;;;;;;5038794;28;51359;-53
2022/03/07 06:50:33;;;;;;;;;17.75;14.75;;;;;;;;5036799;28;51660;-51
2022/03/07 06:53:17;;;;;;;;;23.75;17.75;;;;;;;;5038751;28;51169;-51
2022/03/07 06:56:02;;;;;;;;;11.00;10.50;;;;;;;;5038906;28;51079;-52
2022/03/07 06:58:47;;;;;;;;;15.00;12.50;;;;;;;;5059309;28;51494;-52
2022/03/07 07:01:31;;;;;;;;;14.00;12.50;;;;;;;;5059019;28;51016;-53
2022/03/07 07:04:16;;;;;;;;;16.75;13.75;;;;;;;;5036916;28;51510;-53
2022/03/07 07:07:00;;;;;;;;;18.50;16.75;;;;;;;;5038781;28;51120;-54
2022/03/07 07:09:46;;;;;;;;;49.75;39.50;;;;;;;;5057340;28;50994;-51
2022/03/07 07:12:30;;;;;;;;;62.75;48.25;;;;;;;;5055557;28;51175;-53
2022/03/07 07:15:15;;;;;;;;;60.00;45.00;;;;;;;;5038635;28;51036;-50
2022/03/07 07:17:59;;;;;;;;;56.50;42.75;;;;;;;;5038598;28;51098;-53
2022/03/07 07:20:44;;;;;;;;;52.00;42.00;;;;;;;;5041856;28;52257;-52
2022/03/07 07:23:28;;;;;;;;;52.75;40.50;;;;;;;;5031045;28;51304;-49
2022/03/07 07:26:12;;;;;;;;;52.75;39.00;;;;;;;;5036939;28;51493;-49
2022/03/07 07:28:57;;;;;;;;;52.75;40.25;;;;;;;;5044840;28;51086;-50
2022/03/07 07:31:41;;;;;;;;;52.75;40.50;;;;;;;;5041846;28;51203;-48
2022/03/07 07:34:26;;;;;;;;;51.25;40.00;;;;;;;;5044319;28;51102;-48
2022/03/07 07:37:10;;;;;;;;;47.50;37.25;;;;;;;;5055218;28;51053;-48
2022/03/07 07:39:55;;;;;;;;;54.75;40.75;;;;;;;;5054522;28;51523;-51
2022/03/07 07:42:39;;;;;;;;;54.25;42.50;;;;;;;;5053426;28;50937;-49
2022/03/07 07:45:24;;;;;;;;;56.25;42.25;;;;;;;;5061666;28;51078;-50
2022/03/07 07:48:08;;;;;;;;;52.00;41.00;;;;;;;;5042313;28;51171;-49
2022/03/07 07:50:52;;;;;;;;;48.75;37.75;;;;;;;;5041881;28;51096;-49
2022/03/07 07:53:36;;;;;;;;;50.50;39.75;;;;;;;;5042371;28;51203;-51
2022/03/07 07:56:22;;;;;;;;;45.75;36.50;;;;;;;;5061912;28;51236;-49
2022/03/07 07:59:06;;;;;;;;;46.25;38.50;;;;;;;;5045209;28;51140;-49
2022/03/07 08:01:51;;;;;;;;;55.50;43.25;;;;;;;;5042239;28;51348;-50
2022/03/07 08:04:35;;;;;;;;;52.50;43.50;;;;;;;;5062122;28;51754;-50
2022/03/07 08:07:20;;;;;;;;;56.50;45.75;;;;;;;;5049241;28;51247;-48
2022/03/07 08:10:04;;;;;;;;;57.75;45.00;;;;;;;;5057128;28;51094;-47
2022/03/07 08:12:49;;;;;;;;;58.00;45.00;;;;;;;;5033554;28;51479;-49
2022/03/07 08:15:33;;;;;;;;;57.50;43.50;;;;;;;;5041687;28;51225;-52
2022/03/07 08:18:17;;;;;;;;;47.50;35.25;;;;;;;;5041872;28;51613;-50
2022/03/07 08:21:02;;;;;;;;;48.00;37.50;;;;;;;;5047070;28;51156;-48
2022/03/07 08:23:46;;;;;;;;;40.00;32.00;;;;;;;;5043018;28;51094;-50
2022/03/07 08:26:32;;;;;;;;;45.75;37.00;;;;;;;;5044948;28;51190;-48
2022/03/07 08:29:16;;;;;;;;;29.75;26.75;;;;;;;;5044674;28;51544;-49
2022/03/07 08:32:00;;;;;;;;;31.50;28.50;;;;;;;;5040946;28;51352;-49
2022/03/07 08:34:45;;;;;;;;;31.75;26.50;;;;;;;;5040465;28;51223;-50
2022/03/07 08:37:29;;;;;;;;;23.25;19.50;;;;;;;;5041562;28;51156;-50
2022/03/07 08:40:15;;;;;;;;;19.50;18.25;;;;;;;;5040968;28;51084;-49
2022/03/07 08:42:59;;;;;;;;;24.25;20.75;;;;;;;;5041328;28;51465;-48
2022/03/07 08:45:43;;;;;;;;;22.75;20.50;;;;;;;;5044875;28;51154;-50
2022/03/07 08:48:29;;;;;;;;;22.00;18.75;;;;;;;;5043619;28;51012;-49
2022/03/07 08:51:14;;;;;;;;;18.25;17.50;;;;;;;;5050770;28;51107;-50
2022/03/07 08:53:58;;;;;;;;;18.25;16.00;;;;;;;;5046786;28;51169;-51
2022/03/07 08:56:42;;;;;;;;;17.00;15.00;;;;;;;;5040721;28;51209;-48
2022/03/07 08:59:28;;;;;;;;;12.75;12.75;;;;;;;;5041703;28;51084;-48
2022/03/07 09:02:13;;;;;;;;;12.00;9.00;;;;;;;;5035328;28;51447;-49
2022/03/07 09:04:59;;;;;;;;;9.25;7.25;;;;;;;;5042893;28;51242;-47
2022/03/07 09:07:43;;;;;;;;;6.00;6.00;;;;;;;;5045157;28;51614;-47
2022/03/07 09:10:29;;;;;;;;;7.00;5.50;;;;;;;;5048000;28;51135;-47
2022/03/07 09:13:14;;;;;;;;;9.25;9.00;;;;;;;;5040312;28;51084;-49
2022/03/07 09:15:58;;;;;;;;;14.00;12.50;;;;;;;;5043921;28;51079;-47
2022/03/07 09:18:43;;;;;;;;;12.00;7.25;;;;;;;;5040463;28;51102;-50
2022/03/07 09:21:27;;;;;;;;;6.75;6.75;;;;;;;;5058339;28;51083;-50
2022/03/07 09:24:12;;;;;;;;;13.25;10.25;;;;;;;;5040894;28;51073;-51
2022/03/07 09:26:57;;;;;;;;;9.00;6.75;;;;;;;;5043692;28;51542;-48
2022/03/07 09:29:42;;;;;;;;;4.00;4.00;;;;;;;;5043107;28;51253;-48
2022/03/07 09:32:27;;;;;;;;;6.00;4.00;;;;;;;;5037493;28;51069;-47
2022/03/07 09:35:11;;;;;;;;;3.75;3.75;;;;;;;;5038650;28;51029;-49
2022/03/07 09:37:55;;;;;;;;;12.25;12.00;;;;;;;;5037587;28;51251;-49
2022/03/07 09:40:40;;;;;;;;;10.00;8.25;;;;;;;;5040191;28;51206;-50
2022/03/07 09:43:24;;;;;;;;;14.25;12.50;;;;;;;;5038853;28;51435;-50
2022/03/07 09:46:09;;;;;;;;;5.75;5.75;;;;;;;;5039818;28;51052;-48
2022/03/07 09:48:54;;;;;;;;;4.50;4.50;;;;;;;;5039040;28;51115;-48
2022/03/07 09:51:38;;;;;;;;;4.25;3.00;;;;;;;;5037300;28;51120;-49
2022/03/07 09:54:25;;;;;;;;;5.50;4.00;;;;;;;;5040580;28;51137;-50
2022/03/07 09:57:10;;;;;;;;;5.00;5.00;;;;;;;;5037122;28;51052;-47
2022/03/07 09:59:55;;;;;;;;;7.00;5.00;;;;;;;;5041303;28;51150;-50
2022/03/07 10:02:39;;;;;;;;;7.00;6.25;;;;;;;;5041463;28;51131;-48
2022/03/07 10:05:28;;;;;;;;;10.25;9.00;;;;;;;;5037641;28;51337;-46
2022/03/07 10:08:21;;;;;;;;;7.50;4.00;;;;;;;;5041537;28;51377;-52
2022/03/07 10:11:09;;;;;;;;;8.25;5.00;;;;;;;;5048457;28;51182;-49
2022/03/07 10:13:55;;;;;;;;;5.00;4.25;;;;;;;;5044002;28;51211;-51
2022/03/07 10:16:41;;;;;;;;;4.00;4.00;;;;;;;;5044129;28;51150;-49
2022/03/07 10:19:26;;;;;;;;;6.75;4.00;;;;;;;;5046116;28;51130;-47
2022/03/07 10:22:13;;;;;;;;;5.75;4.00;;;;;;;;5041135;28;51403;-52
2022/03/07 10:25:16;;;;;;;;;3.25;2.75;;;;;;;;5047832;28;51171;-49
2022/03/07 10:28:01;;;;;;;;;4.75;3.00;;;;;;;;5038510;28;51399;-50
2022/03/07 10:30:47;;;;;;;;;0.00;0.00;;;;;;;;5045218;28;51171;-51
2022/03/07 10:33:32;;;;;;;;;2.75;2.75;;;;;;;;5054320;28;51453;-49
2022/03/07 10:36:16;;;;;;;;;3.00;3.00;;;;;;;;5053656;28;51181;-50
2022/03/07 10:39:03;;;;;;;;;2.50;2.50;;;;;;;;5041119;28;51279;-48
2022/03/07 10:41:48;;;;;;;;;5.75;4.00;;;;;;;;5038604;28;51464;-52
2022/03/07 10:44:37;;;;;;;;;3.75;3.00;;;;;;;;5057750;27;51229;-52
2022/03/07 10:47:22;;;;;;;;;4.75;2.75;;;;;;;;5049347;28;51203;-50
2022/03/07 10:50:07;;;;;;;;;5.25;3.00;;;;;;;;5051980;28;51148;-49
2022/03/07 10:52:52;;;;;;;;;6.50;3.50;;;;;;;;5045701;28;51131;-47
2022/03/07 10:55:36;;;;;;;;;2.25;0.00;;;;;;;;5047120;28;51410;-50
2022/03/07 10:58:21;;;;;;;;;4.00;4.00;;;;;;;;5037458;28;51413;-52
2022/03/07 11:01:05;;;;;;;;;4.00;3.00;;;;;;;;5040995;28;51142;-48
2022/03/07 11:03:49;;;;;;;;;5.25;3.50;;;;;;;;5043303;28;51110;-48
2022/03/07 11:06:34;;;;;;;;;4.50;3.25;;;;;;;;5039215;28;51467;-49
2022/03/07 11:09:19;;;;;;;;;2.50;1.25;;;;;;;;5041631;28;51264;-50
2022/03/07 11:12:04;;;;;;;;;6.00;4.00;;;;;;;;5040144;28;51338;-51
2022/03/07 11:14:48;;;;;;;;;6.00;3.50;;;;;;;;5039051;28;51169;-51
2022/03/07 11:17:33;;;;;;;;;7.25;5.75;;;;;;;;5038289;28;51104;-49
2022/03/07 11:20:18;;;;;;;;;5.50;5.25;;;;;;;;5041026;28;51113;-47
2022/03/07 11:23:02;;;;;;;;;6.75;6.00;;;;;;;;5037421;28;51442;-48
2022/03/07 11:25:48;;;;;;;;;7.50;4.50;;;;;;;;5040100;28;51052;-51
2022/03/07 11:28:33;;;;;;;;;5.00;5.00;;;;;;;;5034662;28;51166;-51
2022/03/07 11:31:21;;;;;;;;;4.25;3.25;;;;;;;;5037048;28;51100;-47
2022/03/07 11:34:07;;;;;;;;;4.00;3.25;;;;;;;;5041082;28;51203;-49
2022/03/07 11:36:52;;;;;;;;;4.50;4.50;;;;;;;;5038871;28;51441;-50
2022/03/07 11:39:36;;;;;;;;;6.00;5.75;;;;;;;;5048456;28;51047;-51
2022/03/07 11:42:21;;;;;;;;;6.50;4.75;;;;;;;;5037236;28;51121;-51
2022/03/07 11:45:10;;;;;;;;;5.00;5.00;;;;;;;;5046317;28;51354;-48
2022/03/07 11:47:54;;;;;;;;;2.75;1.00;;;;;;;;5029104;28;51589;-49
2022/03/07 11:50:39;;;;;;;;;4.00;3.50;;;;;;;;5029906;28;51199;-49
2022/03/07 11:53:25;;;;;;;;;4.75;4.75;;;;;;;;5034600;28;51968;-49
2022/03/07 11:56:15;;;;;;;;;4.75;3.75;;;;;;;;5035382;28;51603;-49
2022/03/07 11:59:00;;;;;;;;;1.25;1.25;;;;;;;;5036295;28;51237;-52
2022/03/07 12:01:51;;;;;;;;;5.50;2.75;;;;;;;;5036156;28;51107;-49
2022/03/07 12:04:39;;;;;;;;;4.25;3.75;;;;;;;;5038510;28;51040;-51
2022/03/07 12:07:24;;;;;;;;;5.25;3.25;;;;;;;;5051399;28;51147;-51
2022/03/07 12:10:09;;;;;;;;;5.00;2.50;;;;;;;;5036365;28;51152;-48
2022/03/07 12:13:03;;;;;;;;;3.25;3.25;;;;;;;;5038972;28;51087;-50
2022/03/07 12:15:49;;;;;;;;;4.25;4.25;;;;;;;;5051606;28;51152;-51
2022/03/07 12:18:36;;;;;;;;;5.00;3.25;;;;;;;;5041736;28;51686;-51
2022/03/07 12:21:25;;;;;;;;;3.75;3.25;;;;;;;;5041253;28;51090;-50
2022/03/07 12:24:10;;;;;;;;;4.25;3.25;;;;;;;;5041832;28;51133;-50
2022/03/07 12:26:56;;;;;;;;;4.00;3.50;;;;;;;;5050961;28;51233;-50
2022/03/07 12:29:41;;;;;;;;;2.75;2.75;;;;;;;;5048649;28;51252;-49
2022/03/07 12:32:25;;;;;;;;;3.25;2.50;;;;;;;;5061745;28;51121;-49
2022/03/07 12:35:10;;;;;;;;;4.75;3.25;;;;;;;;5060335;28;51135;-52
2022/03/07 12:37:59;;;;;;;;;1.25;1.25;;;;;;;;5043067;28;51093;-51
2022/03/07 12:40:48;;;;;;;;;3.00;3.00;;;;;;;;5057388;28;51126;-50
2022/03/07 12:43:33;;;;;;;;;4.00;4.00;;;;;;;;5045922;28;51342;-49
2022/03/07 12:46:17;;;;;;;;;4.75;3.50;;;;;;;;5042571;28;51419;-49
2022/03/07 12:49:02;;;;;;;;;4.75;2.75;;;;;;;;5042594;28;51275;-48
2022/03/07 12:51:46;;;;;;;;;4.75;4.50;;;;;;;;5046572;28;51060;-48
2022/03/07 12:54:33;;;;;;;;;3.75;3.75;;;;;;;;5047900;28;51174;-49
2022/03/07 12:57:18;;;;;;;;;2.25;2.25;;;;;;;;5038096;28;51362;-48
2022/03/07 13:00:05;;;;;;;;;5.50;3.00;;;;;;;;5050588;28;51188;-50
2022/03/07 13:02:50;;;;;;;;;3.75;3.00;;;;;;;;5053165;28;51418;-51
2022/03/07 13:05:34;;;;;;;;;2.75;2.00;;;;;;;;5057702;28;51158;-48
2022/03/07 13:08:18;;;;;;;;;5.00;3.00;;;;;;;;5041102;28;51186;-49
2022/03/07 13:11:03;;;;;;;;;4.00;4.00;;;;;;;;5039365;28;51618;-49
2022/03/07 13:13:49;;;;;;;;;3.75;3.75;;;;;;;;5050464;28;51105;-49
2022/03/07 13:16:35;;;;;;;;;3.00;3.00;;;;;;;;5048751;28;51194;-48
2022/03/07 13:19:21;;;;;;;;;5.00;4.75;;;;;;;;5047838;28;51169;-49
2022/03/07 13:22:06;;;;;;;;;4.00;4.00;;;;;;;;5040989;28;51554;-50
2022/03/07 13:24:52;;;;;;;;;2.75;2.75;;;;;;;;5051808;28;51048;-49
2022/03/07 13:27:44;;;;;;;;;0.50;0.00;;;;;;;;5060827;28;51128;-51
2022/03/07 13:30:28;;;;;;;;;3.00;3.00;;;;;;;;5061013;28;51113;-49
2022/03/07 13:33:12;;;;;;;;;2.75;2.75;;;;;;;;5061120;28;51011;-50
2022/03/07 13:35:56;;;;;;;;;6.75;4.00;;;;;;;;5048320;28;51482;-49
2022/03/07 13:38:41;;;;;;;;;2.50;2.00;;;;;;;;5056172;28;51224;-50
2022/03/07 13:41:25;;;;;;;;;4.75;3.50;;;;;;;;5044551;28;51132;-50
2022/03/07 13:44:09;;;;;;;;;5.00;4.00;;;;;;;;5057677;28;51082;-47
2022/03/07 13:47:02;;;;;;;;;5.00;2.00;;;;;;;;5039806;28;51469;-51
2022/03/07 13:49:48;;;;;;;;;3.75;3.50;;;;;;;;5041331;28;51221;-51
2022/03/07 13:52:35;;;;;;;;;2.50;2.50;;;;;;;;5049054;28;51067;-51
2022/03/07 13:55:20;;;;;;;;;2.75;2.75;;;;;;;;5044705;28;51151;-50
2022/03/07 13:58:08;;;;;;;;;3.50;3.50;;;;;;;;5049830;28;50954;-49
2022/03/07 14:01:06;;;;;;;;;4.00;3.50;;;;;;;;5051433;28;51023;-51
2022/03/07 14:03:50;;;;;;;;;4.50;2.25;;;;;;;;5040182;28;51122;-52
2022/03/07 14:06:34;;;;;;;;;1.75;1.75;;;;;;;;5044827;28;51112;-49
2022/03/07 14:09:19;;;;;;;;;5.75;2.00;;;;;;;;5047912;28;51333;-49
2022/03/07 14:12:04;;;;;;;;;2.25;2.00;;;;;;;;5038391;28;51411;-50
2022/03/07 14:14:55;;;;;;;;;4.75;3.25;;;;;;;;5058858;28;51152;-49
2022/03/07 14:17:39;;;;;;;;;2.25;2.25;;;;;;;;5059648;28;51594;-51
2022/03/07 14:20:23;;;;;;;;;1.75;1.75;;;;;;;;5040013;28;51161;-52
2022/03/07 14:23:09;;;;;;;;;3.75;3.50;;;;;;;;5040983;28;51115;-51
2022/03/07 14:25:53;;;;;;;;;4.75;3.00;;;;;;;;5044082;28;51086;-47
2022/03/07 14:28:37;;;;;;;;;6.25;2.25;;;;;;;;5051076;28;51196;-52
2022/03/07 14:31:21;;;;;;;;;2.75;2.75;;;;;;;;5037523;28;51043;-51
2022/03/07 14:34:09;;;;;;;;;2.75;2.75;;;;;;;;5035784;28;51257;-49
2022/03/07 14:36:53;;;;;;;;;3.75;3.75;;;;;;;;5040235;28;51199;-53
2022/03/07 14:39:37;;;;;;;;;4.50;2.00;;;;;;;;5039884;28;52226;-51
2022/03/07 14:42:22;;;;;;;;;0.75;0.75;;;;;;;;5037474;28;51536;-49
2022/03/07 14:45:08;;;;;;;;;2.75;2.75;;;;;;;;5058999;28;51152;-51
2022/03/07 14:47:52;;;;;;;;;0.00;0.00;;;;;;;;5052448;28;51075;-49
2022/03/07 14:50:37;;;;;;;;;1.00;1.00;;;;;;;;5042076;28;51551;-49
2022/03/07 14:53:21;;;;;;;;;1.75;1.75;;;;;;;;5035738;28;51172;-49
2022/03/07 14:56:06;;;;;;;;;3.00;3.00;;;;;;;;5040591;28;51178;-48
2022/03/07 14:58:51;;;;;;;;;4.00;2.00;;;;;;;;5053394;28;51097;-49
2022/03/07 15:01:35;;;;;;;;;2.00;2.00;;;;;;;;5038782;28;52039;-49
2022/03/07 15:04:19;;;;;;;;;4.25;2.00;;;;;;;;5052273;28;51225;-50
2022/03/07 15:07:04;;;;;;;;;2.25;2.25;;;;;;;;5058784;28;51093;-50
2022/03/07 15:09:48;;;;;;;;;3.00;3.00;;;;;;;;5057657;28;51277;-50
2022/03/07 15:12:32;;;;;;;;;3.50;3.00;;;;;;;;5039556;28;51150;-52
2022/03/07 15:15:17;;;;;;;;;3.00;1.00;;;;;;;;5038077;28;51376;-52
2022/03/07 15:18:02;;;;;;;;;3.00;2.50;;;;;;;;5041833;28;51051;-49
2022/03/07 15:20:46;;;;;;;;;5.00;2.00;;;;;;;;5037294;28;51160;-49
2022/03/07 15:23:32;;;;;;;;;2.00;2.00;;;;;;;;5039183;28;51128;-52
2022/03/07 15:26:16;;;;;;;;;3.25;2.75;;;;;;;;5046648;28;51126;-48
2022/03/07 15:29:02;;;;;;;;;6.75;3.75;;;;;;;;5045143;28;51180;-51
2022/03/07 15:31:47;;;;;;;;;3.25;1.00;;;;;;;;5047894;28;51066;-48
2022/03/07 15:34:32;;;;;;;;;5.75;3.50;;;;;;;;5041114;28;51264;-48
2022/03/07 15:37:19;;;;;;;;;2.50;2.00;;;;;;;;5039999;28;51170;-48
2022/03/07 15:40:04;;;;;;;;;2.00;2.00;;;;;;;;5054863;28;51425;-49
2022/03/07 15:42:49;;;;;;;;;3.75;3.50;;;;;;;;5039142;28;51489;-51
2022/03/07 15:45:34;;;;;;;;;5.75;1.50;;;;;;;;5045821;28;51052;-48
2022/03/07 15:48:18;;;;;;;;;3.50;2.50;;;;;;;;5038962;28;51174;-49
2022/03/07 15:51:03;;;;;;;;;3.50;2.00;;;;;;;;5051943;28;51455;-49
2022/03/07 15:53:47;;;;;;;;;4.50;1.50;;;;;;;;5061549;28;51211;-53
2022/03/07 15:56:34;;;;;;;;;2.25;2.25;;;;;;;;5048581;28;51173;-52
2022/03/07 15:59:21;;;;;;;;;2.75;2.75;;;;;;;;5042925;28;51186;-51
2022/03/07 16:02:05;;;;;;;;;4.00;2.00;;;;;;;;5042521;28;51239;-51
2022/03/07 16:04:49;;;;;;;;;3.75;1.50;;;;;;;;5055165;28;51512;-49
2022/03/07 16:07:37;;;;;;;;;2.50;2.25;;;;;;;;5042311;28;51247;-49
2022/03/07 16:10:22;;;;;;;;;4.75;3.00;;;;;;;;5041605;28;51199;-48
2022/03/07 16:13:06;;;;;;;;;2.25;2.00;;;;;;;;5043738;28;51398;-50
2022/03/07 16:15:51;;;;;;;;;4.25;3.00;;;;;;;;5052493;28;51420;-51
2022/03/07 16:18:37;;;;;;;;;4.50;3.00;;;;;;;;5041851;28;51100;-48
2022/03/07 16:21:22;;;;;;;;;3.50;3.25;;;;;;;;5041746;28;51358;-50